Time;durP1;ratioP1;P1;durP2;ratioP2;P2;SDS_P1;SDS_P2;PMS_P1;PMS_P2;Temp;Humidity;BMP_temperature;BMP_pressure;BME280_temperature;BME280_humidity;BME280_pressure;Samples;Min_cycle;Max_cycle;Signal;HPM_P1;HPM_P2
2023/01/24 00:02:04;;;;;;;5.45;3.80;;;;;;;;;;5089360;28;20043;-74
2023/01/24 00:04:36;;;;;;;8.13;3.88;;;;;;;;;;5089565;28;20040;-76
2023/01/24 00:07:06;;;;;;;5.15;3.50;;;;;;;;;;5089690;28;20532;-75
2023/01/24 00:09:37;;;;;;;5.88;3.80;;;;;;;;;;5089690;28;20059;-76
2023/01/24 00:12:07;;;;;;;9.02;3.95;;;;;;;;;;5088764;28;20524;-75
2023/01/24 00:14:37;;;;;;;10.60;3.72;;;;;;;;;;5089513;28;20820;-74
2023/01/24 00:17:09;;;;;;;9.40;3.53;;;;;;;;;;5089296;28;20052;-74
2023/01/24 00:19:41;;;;;;;7.13;3.33;;;;;;;;;;5089638;28;20391;-79
2023/01/24 00:22:12;;;;;;;4.85;3.30;;;;;;;;;;5090227;28;20044;-76
2023/01/24 00:24:42;;;;;;;14.77;4.05;;;;;;;;;;5088920;28;20040;-74
2023/01/24 00:27:12;;;;;;;9.20;3.63;;;;;;;;;;5089509;28;20047;-75
2023/01/24 00:29:42;;;;;;;12.50;3.92;;;;;;;;;;5088682;28;20114;-75
2023/01/24 00:32:14;;;;;;;6.60;3.58;;;;;;;;;;5089040;28;20671;-75
2023/01/24 00:34:44;;;;;;;8.05;3.75;;;;;;;;;;5088371;28;20062;-76
2023/01/24 00:37:14;;;;;;;5.05;3.38;;;;;;;;;;5089430;28;20055;-75
2023/01/24 00:39:45;;;;;;;8.60;4.40;;;;;;;;;;5080773;28;20048;-75
2023/01/24 00:42:16;;;;;;;5.45;3.70;;;;;;;;;;5078810;28;20051;-75
2023/01/24 00:44:47;;;;;;;9.00;4.00;;;;;;;;;;5085105;28;20055;-76
2023/01/24 00:47:16;;;;;;;7.63;3.72;;;;;;;;;;5086632;28;20442;-75
2023/01/24 00:49:47;;;;;;;6.65;3.80;;;;;;;;;;5073853;28;20758;-76
2023/01/24 00:52:17;;;;;;;5.05;3.85;;;;;;;;;;5078992;28;20036;-76
2023/01/24 00:54:49;;;;;;;9.40;4.20;;;;;;;;;;5067975;28;20060;-74
2023/01/24 00:57:21;;;;;;;8.40;3.83;;;;;;;;;;5050041;28;20515;-74
2023/01/24 00:59:52;;;;;;;9.95;4.40;;;;;;;;;;5067590;28;20044;-74
2023/01/24 01:02:21;;;;;;;8.75;4.07;;;;;;;;;;5066492;28;20059;-74
2023/01/24 01:04:54;;;;;;;6.57;3.63;;;;;;;;;;5066067;28;20044;-74
2023/01/24 01:07:24;;;;;;;10.57;4.22;;;;;;;;;;5068064;28;20428;-74
2023/01/24 01:09:55;;;;;;;11.25;4.55;;;;;;;;;;5068286;28;20051;-74
2023/01/24 01:12:25;;;;;;;9.15;4.78;;;;;;;;;;5068215;28;20049;-78
2023/01/24 01:14:55;;;;;;;9.85;4.43;;;;;;;;;;5065656;28;20049;-74
2023/01/24 01:17:27;;;;;;;7.15;4.18;;;;;;;;;;5068271;28;20048;-73
2023/01/24 01:19:58;;;;;;;7.70;3.95;;;;;;;;;;5073251;28;20032;-75
2023/01/24 01:22:28;;;;;;;7.10;3.90;;;;;;;;;;5076850;28;20036;-73
2023/01/24 01:24:58;;;;;;;9.68;4.53;;;;;;;;;;5073391;28;20059;-74
2023/01/24 01:27:29;;;;;;;8.73;4.47;;;;;;;;;;5076861;28;20047;-74
2023/01/24 01:30:02;;;;;;;10.05;4.75;;;;;;;;;;5076672;28;20044;-77
2023/01/24 01:32:34;;;;;;;15.27;4.15;;;;;;;;;;5077433;28;20048;-74
2023/01/24 01:35:06;;;;;;;8.68;3.95;;;;;;;;;;5074635;28;20056;-74
2023/01/24 01:37:37;;;;;;;13.68;4.43;;;;;;;;;;5074656;28;20054;-74
2023/01/24 01:40:08;;;;;;;8.98;4.35;;;;;;;;;;5076451;28;20040;-74
2023/01/24 01:43:00;;;;;;;15.27;4.18;;;;;;;;;;5076479;28;20044;-74
2023/01/24 01:45:48;;;;;;;10.85;4.63;;;;;;;;;;5076645;28;20053;-74
2023/01/24 01:48:23;;;;;;;7.57;3.92;;;;;;;;;;5077645;28;20040;-71
2023/01/24 01:51:20;;;;;;;12.63;4.32;;;;;;;;;;5084959;28;20056;-72
2023/01/24 01:54:14;;;;;;;7.22;3.88;;;;;;;;;;5083711;28;20510;-74
2023/01/24 01:56:52;;;;;;;13.77;3.75;;;;;;;;;;5087631;28;20052;-73
2023/01/24 01:59:35;;;;;;;9.30;3.60;;;;;;;;;;5084211;28;20054;-74
2023/01/24 02:02:10;;;;;;;9.38;3.55;;;;;;;;;;5084745;28;20055;-74
2023/01/24 02:04:49;;;;;;;7.88;3.40;;;;;;;;;;5087075;28;20485;-74
2023/01/24 02:07:30;;;;;;;9.02;3.72;;;;;;;;;;5084881;28;20052;-73
2023/01/24 02:10:03;;;;;;;6.75;3.90;;;;;;;;;;5087933;28;20051;-74
2023/01/24 02:12:39;;;;;;;4.93;3.45;;;;;;;;;;5087058;28;20048;-74
2023/01/24 02:18:10;;;;;;;8.57;3.17;;;;;;;;;;5086175;28;20514;-74
2023/01/24 02:20:46;;;;;;;6.65;3.47;;;;;;;;;;5086021;28;20055;-74
2023/01/24 02:23:31;;;;;;;5.80;3.25;;;;;;;;;;5087276;28;20048;-74
2023/01/24 02:26:12;;;;;;;4.90;3.17;;;;;;;;;;5084764;28;20500;-74
2023/01/24 02:28:56;;;;;;;7.13;3.15;;;;;;;;;;5084677;28;20795;-74
2023/01/24 02:31:27;;;;;;;8.18;3.28;;;;;;;;;;5085059;28;20048;-74
2023/01/24 02:33:59;;;;;;;5.50;3.22;;;;;;;;;;5087225;28;20044;-74
2023/01/24 02:36:34;;;;;;;8.85;3.50;;;;;;;;;;5085262;28;20079;-74
2023/01/24 02:39:13;;;;;;;8.80;3.70;;;;;;;;;;5087023;28;20040;-74
2023/01/24 02:41:54;;;;;;;7.32;3.25;;;;;;;;;;5086205;28;20056;-74
2023/01/24 02:44:35;;;;;;;7.03;3.58;;;;;;;;;;5084437;28;20048;-74
2023/01/24 02:47:05;;;;;;;7.18;3.13;;;;;;;;;;5084589;28;20070;-74
2023/01/24 02:49:35;;;;;;;7.38;3.58;;;;;;;;;;5086033;28;20051;-74
2023/01/24 02:54:57;;;;;;;8.70;3.72;;;;;;;;;;5084432;28;20060;-74
2023/01/24 03:00:16;;;;;;;8.07;3.63;;;;;;;;;;5084874;28;20052;-73
2023/01/24 03:02:46;;;;;;;7.60;3.90;;;;;;;;;;5084701;28;20036;-74
2023/01/24 03:05:17;;;;;;;8.88;3.30;;;;;;;;;;5085653;28;20126;-74
2023/01/24 03:07:50;;;;;;;5.38;3.05;;;;;;;;;;5084828;28;20529;-74
2023/01/24 03:10:21;;;;;;;11.15;3.63;;;;;;;;;;5084922;28;20418;-74
2023/01/24 03:35:27;;;;;;;6.90;3.70;;;;;;;;;;5090160;28;20051;-74
2023/01/24 03:40:48;;;;;;;13.10;3.75;;;;;;;;;;5088311;28;20516;-73
2023/01/24 03:43:19;;;;;;;12.07;4.05;;;;;;;;;;5087893;28;20059;-73
2023/01/24 03:45:53;;;;;;;6.53;3.80;;;;;;;;;;5089774;28;20051;-73
2023/01/24 03:48:36;;;;;;;10.02;4.00;;;;;;;;;;5087130;28;20052;-73
2023/01/24 03:53:58;;;;;;;5.90;3.97;;;;;;;;;;5089277;28;20643;-74
2023/01/24 03:56:40;;;;;;;9.70;3.50;;;;;;;;;;5087525;28;20056;-73
2023/01/24 03:59:10;;;;;;;9.30;3.92;;;;;;;;;;5087537;28;20048;-73
2023/01/24 04:01:41;;;;;;;9.82;4.05;;;;;;;;;;5087194;28;20052;-73
2023/01/24 04:05:11;;;;;;;8.00;4.05;;;;;;;;;;5087833;28;20048;-73
2023/01/24 04:07:15;;;;;;;6.93;3.55;;;;;;;;;;5087241;28;20059;-73
2023/01/24 04:10:05;;;;;;;6.70;3.80;;;;;;;;;;5087579;28;20639;-73
2023/01/24 04:12:43;;;;;;;6.47;4.00;;;;;;;;;;5087317;28;20055;-73
2023/01/24 04:15:18;;;;;;;5.53;3.95;;;;;;;;;;5089309;28;20059;-73
2023/01/24 04:18:01;;;;;;;7.50;3.78;;;;;;;;;;5088270;28;20407;-73
2023/01/24 04:20:34;;;;;;;5.28;4.00;;;;;;;;;;5087412;28;20044;-73
2023/01/24 04:23:07;;;;;;;8.73;4.00;;;;;;;;;;5087021;28;20364;-74
2023/01/24 04:25:42;;;;;;;7.60;3.67;;;;;;;;;;5069947;28;20525;-73
2023/01/24 04:28:12;;;;;;;5.95;3.92;;;;;;;;;;5089239;28;20052;-73
2023/01/24 04:30:42;;;;;;;9.25;3.97;;;;;;;;;;5086340;28;20044;-73
2023/01/24 04:33:27;;;;;;;9.68;3.90;;;;;;;;;;5072316;28;20052;-73
2023/01/24 04:35:59;;;;;;;6.60;3.50;;;;;;;;;;5086488;28;20056;-74
2023/01/24 04:38:30;;;;;;;10.90;4.15;;;;;;;;;;5088961;28;20047;-73
2023/01/24 04:41:21;;;;;;;6.47;3.78;;;;;;;;;;5088037;28;20067;-74
2023/01/24 04:43:54;;;;;;;8.30;5.18;;;;;;;;;;5086470;28;20438;-74
2023/01/24 04:46:25;;;;;;;5.18;4.30;;;;;;;;;;5087023;28;20048;-73
2023/01/24 04:48:57;;;;;;;5.32;3.95;;;;;;;;;;5086598;28;20055;-74
2023/01/24 04:51:42;;;;;;;8.02;3.90;;;;;;;;;;5087389;28;20965;-73
2023/01/24 04:54:19;;;;;;;9.45;3.70;;;;;;;;;;5086656;28;20651;-73
2023/01/24 04:56:51;;;;;;;6.18;3.42;;;;;;;;;;5087096;28;20407;-73
2023/01/24 04:59:24;;;;;;;10.75;3.83;;;;;;;;;;5086695;28;20059;-74
2023/01/24 05:01:55;;;;;;;10.27;3.67;;;;;;;;;;5086967;28;20071;-74
2023/01/24 05:04:37;;;;;;;5.90;3.72;;;;;;;;;;5085928;28;20075;-73
2023/01/24 05:07:10;;;;;;;8.00;3.42;;;;;;;;;;5085645;28;20101;-73
2023/01/24 05:09:44;;;;;;;4.72;3.15;;;;;;;;;;5086521;28;20411;-73
2023/01/24 05:12:14;;;;;;;4.25;2.88;;;;;;;;;;5086961;28;20063;-73
2023/01/24 05:14:45;;;;;;;4.82;3.47;;;;;;;;;;5085739;28;20162;-74
2023/01/24 05:17:16;;;;;;;6.18;3.60;;;;;;;;;;5086398;28;20048;-73
2023/01/24 05:19:48;;;;;;;8.25;3.63;;;;;;;;;;5086686;28;20515;-74
2023/01/24 05:22:20;;;;;;;3.97;3.47;;;;;;;;;;5086118;28;20075;-74
2023/01/24 05:24:52;;;;;;;6.82;4.00;;;;;;;;;;5085555;28;20101;-73
2023/01/24 05:27:23;;;;;;;4.13;3.25;;;;;;;;;;5085900;28;20632;-74
2023/01/24 05:29:58;;;;;;;8.98;3.45;;;;;;;;;;5086263;28;20066;-74
2023/01/24 05:32:30;;;;;;;8.02;3.67;;;;;;;;;;5086914;28;20048;-73
2023/01/24 05:35:01;;;;;;;6.93;3.38;;;;;;;;;;5085585;28;20051;-73
2023/01/24 05:37:32;;;;;;;10.30;3.50;;;;;;;;;;5085990;28;20058;-73
2023/01/24 05:40:03;;;;;;;10.20;3.45;;;;;;;;;;5087978;28;20051;-73
2023/01/24 05:42:34;;;;;;;6.50;3.25;;;;;;;;;;5086517;28;20055;-73
2023/01/24 05:45:06;;;;;;;5.03;3.30;;;;;;;;;;5085230;28;20056;-74
2023/01/24 05:47:37;;;;;;;6.35;3.20;;;;;;;;;;5085124;28;20078;-74
2023/01/24 05:50:11;;;;;;;9.88;3.50;;;;;;;;;;5070028;28;20064;-73
2023/01/24 05:52:42;;;;;;;7.18;3.25;;;;;;;;;;5087455;28;20048;-73
2023/01/24 05:55:13;;;;;;;6.38;3.42;;;;;;;;;;5085556;28;20052;-74
2023/01/24 05:57:48;;;;;;;4.63;3.78;;;;;;;;;;5085394;28;20044;-74
2023/01/24 06:00:18;;;;;;;6.22;3.97;;;;;;;;;;5087396;28;20048;-73
2023/01/24 06:03:09;;;;;;;7.50;3.38;;;;;;;;;;5073417;28;20059;-74
2023/01/24 06:05:44;;;;;;;5.55;3.60;;;;;;;;;;5069588;28;20060;-74
2023/01/24 06:08:17;;;;;;;4.30;3.30;;;;;;;;;;5085780;28;20506;-74
2023/01/24 06:10:47;;;;;;;5.82;3.78;;;;;;;;;;5085676;28;20048;-73
2023/01/24 06:13:21;;;;;;;9.40;3.55;;;;;;;;;;5085445;28;20055;-74
2023/01/24 06:16:01;;;;;;;6.43;3.78;;;;;;;;;;5085413;28;20059;-73
2023/01/24 06:18:34;;;;;;;7.05;3.67;;;;;;;;;;5084895;28;20063;-73
2023/01/24 06:21:23;;;;;;;4.60;3.88;;;;;;;;;;5085153;28;20052;-73
2023/01/24 06:23:55;;;;;;;5.65;3.33;;;;;;;;;;5085599;28;20079;-74
2023/01/24 06:26:37;;;;;;;4.50;3.40;;;;;;;;;;5084787;28;20044;-73
2023/01/24 06:29:10;;;;;;;6.43;3.45;;;;;;;;;;5085761;28;20052;-73
2023/01/24 06:32:04;;;;;;;13.52;3.80;;;;;;;;;;5086700;28;20044;-73
2023/01/24 06:34:52;;;;;;;5.60;3.70;;;;;;;;;;5086901;28;20052;-73
2023/01/24 06:37:43;;;;;;;4.60;3.75;;;;;;;;;;5086602;28;20494;-73
2023/01/24 06:40:19;;;;;;;5.40;3.55;;;;;;;;;;5077373;28;20056;-73
2023/01/24 06:42:50;;;;;;;4.05;3.15;;;;;;;;;;5086975;28;20491;-73
2023/01/24 06:45:22;;;;;;;3.00;2.53;;;;;;;;;;5086585;28;20040;-73
2023/01/24 06:47:57;;;;;;;4.47;2.95;;;;;;;;;;5086271;28;20052;-73
2023/01/24 06:50:32;;;;;;;6.60;2.90;;;;;;;;;;5086741;28;20056;-74
2023/01/24 06:53:02;;;;;;;5.13;3.40;;;;;;;;;;5086720;28;20368;-73
2023/01/24 06:55:32;;;;;;;6.10;3.53;;;;;;;;;;5086787;28;20395;-74
2023/01/24 06:58:04;;;;;;;14.98;4.00;;;;;;;;;;5085275;28;20052;-75
2023/01/24 07:00:35;;;;;;;8.40;3.50;;;;;;;;;;5086649;28;20518;-73
2023/01/24 07:03:07;;;;;;;6.75;3.63;;;;;;;;;;5086440;28;20070;-73
2023/01/24 07:05:39;;;;;;;14.40;3.50;;;;;;;;;;5085485;28;20048;-73
2023/01/24 07:08:10;;;;;;;6.85;3.40;;;;;;;;;;5086748;28;20047;-73
2023/01/24 07:10:42;;;;;;;8.50;3.38;;;;;;;;;;5087143;28;20055;-74
2023/01/24 07:13:12;;;;;;;4.93;3.80;;;;;;;;;;5085533;28;20043;-73
2023/01/24 07:15:43;;;;;;;5.63;3.60;;;;;;;;;;5086271;28;20044;-73
2023/01/24 07:18:17;;;;;;;4.80;3.53;;;;;;;;;;5086527;28;20063;-74
2023/01/24 07:20:48;;;;;;;4.57;3.50;;;;;;;;;;5086754;28;20044;-74
2023/01/24 07:23:28;;;;;;;4.57;3.78;;;;;;;;;;5085848;28;20051;-74
2023/01/24 07:25:58;;;;;;;8.32;4.05;;;;;;;;;;5086876;28;20044;-73
2023/01/24 07:28:30;;;;;;;4.70;2.92;;;;;;;;;;5086277;28;20044;-71
2023/01/24 07:31:00;;;;;;;7.47;3.67;;;;;;;;;;5086072;28;20044;-71
2023/01/24 07:33:30;;;;;;;5.10;3.35;;;;;;;;;;5084499;28;20048;-71
2023/01/24 07:36:00;;;;;;;5.88;3.60;;;;;;;;;;5084503;28;20048;-71
2023/01/24 07:38:30;;;;;;;10.10;3.55;;;;;;;;;;5084954;28;20507;-73
2023/01/24 07:41:10;;;;;;;6.13;3.58;;;;;;;;;;5085925;28;20058;-74
2023/01/24 07:43:41;;;;;;;6.00;3.47;;;;;;;;;;5086358;28;20067;-74
2023/01/24 07:46:11;;;;;;;3.88;3.47;;;;;;;;;;5086741;28;20047;-71
2023/01/24 07:48:42;;;;;;;5.55;3.53;;;;;;;;;;5086162;28;20048;-71
2023/01/24 07:51:12;;;;;;;7.53;3.70;;;;;;;;;;5086099;28;20056;-71
2023/01/24 07:53:43;;;;;;;4.47;3.90;;;;;;;;;;5086454;28;20040;-70
2023/01/24 07:56:14;;;;;;;5.80;3.88;;;;;;;;;;5085801;28;20051;-73
2023/01/24 07:58:55;;;;;;;9.35;3.70;;;;;;;;;;5085662;28;20047;-74
2023/01/24 08:01:26;;;;;;;5.85;3.78;;;;;;;;;;5089556;28;20055;-73
2023/01/24 08:03:59;;;;;;;7.25;4.05;;;;;;;;;;5089920;28;20638;-73
2023/01/24 08:06:29;;;;;;;5.40;3.97;;;;;;;;;;5089904;28;20505;-73
2023/01/24 08:08:59;;;;;;;7.90;3.67;;;;;;;;;;5088755;28;20063;-71
2023/01/24 08:11:30;;;;;;;5.13;3.92;;;;;;;;;;5088002;28;20044;-71
2023/01/24 08:14:01;;;;;;;4.82;3.50;;;;;;;;;;5089811;28;20036;-71
2023/01/24 08:16:31;;;;;;;4.75;3.55;;;;;;;;;;5089585;28;20053;-71
2023/01/24 08:19:01;;;;;;;7.07;4.00;;;;;;;;;;5089907;28;20495;-71
2023/01/24 08:21:32;;;;;;;5.35;3.60;;;;;;;;;;5089264;28;20411;-73
2023/01/24 08:24:08;;;;;;;6.97;3.70;;;;;;;;;;5087737;28;20067;-74
2023/01/24 08:26:38;;;;;;;9.85;4.25;;;;;;;;;;5089002;28;20036;-74
2023/01/24 08:29:08;;;;;;;5.30;4.05;;;;;;;;;;5089149;28;20070;-73
2023/01/24 08:31:39;;;;;;;6.07;3.70;;;;;;;;;;5089084;28;20052;-73
2023/01/24 08:34:12;;;;;;;6.25;4.00;;;;;;;;;;5089290;28;20040;-74
2023/01/24 08:36:42;;;;;;;5.93;3.85;;;;;;;;;;5089038;28;20047;-74
2023/01/24 08:39:13;;;;;;;5.20;3.90;;;;;;;;;;5089109;28;20525;-75
2023/01/24 08:41:56;;;;;;;6.15;3.55;;;;;;;;;;5089603;28;20158;-74
2023/01/24 08:44:27;;;;;;;8.82;3.95;;;;;;;;;;5088689;28;20048;-74
2023/01/24 08:46:57;;;;;;;8.13;3.58;;;;;;;;;;5088817;28;20040;-75
2023/01/24 08:49:28;;;;;;;8.93;3.70;;;;;;;;;;5088090;28;20059;-74
2023/01/24 08:52:01;;;;;;;8.82;3.95;;;;;;;;;;5087759;28;20052;-75
2023/01/24 08:54:32;;;;;;;6.18;3.72;;;;;;;;;;5088653;28;20048;-75
2023/01/24 08:57:05;;;;;;;5.70;3.33;;;;;;;;;;5088707;28;20048;-75
2023/01/24 08:59:35;;;;;;;8.40;3.72;;;;;;;;;;5088060;28;20044;-76
2023/01/24 09:02:05;;;;;;;5.35;3.65;;;;;;;;;;5088219;28;20044;-75
2023/01/24 09:04:36;;;;;;;4.38;3.97;;;;;;;;;;5088939;28;20048;-75
2023/01/24 09:07:08;;;;;;;7.82;3.90;;;;;;;;;;5089424;28;20059;-74
2023/01/24 09:09:39;;;;;;;7.20;3.60;;;;;;;;;;5088317;28;20052;-75
2023/01/24 09:12:09;;;;;;;6.75;4.80;;;;;;;;;;5087755;28;20055;-74
2023/01/24 09:14:39;;;;;;;10.52;4.22;;;;;;;;;;5088165;28;20048;-75
2023/01/24 09:17:17;;;;;;;5.90;4.20;;;;;;;;;;5088294;28;20059;-79
2023/01/24 09:19:48;;;;;;;6.35;4.20;;;;;;;;;;5088044;28;20044;-73
2023/01/24 09:22:18;;;;;;;7.30;3.88;;;;;;;;;;5085654;28;20044;-74
2023/01/24 09:24:52;;;;;;;7.70;3.60;;;;;;;;;;5088054;28;20502;-74
2023/01/24 09:27:24;;;;;;;5.22;3.47;;;;;;;;;;5088173;28;20036;-73
2023/01/24 09:29:54;;;;;;;6.68;3.28;;;;;;;;;;5086256;28;20059;-75
2023/01/24 09:32:24;;;;;;;4.40;3.85;;;;;;;;;;5087832;28;20043;-73
2023/01/24 09:34:56;;;;;;;5.97;4.00;;;;;;;;;;5088943;28;20399;-73
2023/01/24 09:37:26;;;;;;;6.53;3.90;;;;;;;;;;5087763;28;20383;-75
2023/01/24 09:39:59;;;;;;;6.65;4.18;;;;;;;;;;5087769;28;20506;-75
2023/01/24 09:42:40;;;;;;;5.75;4.10;;;;;;;;;;5087760;28;20044;-75
2023/01/24 09:45:27;;;;;;;9.32;4.22;;;;;;;;;;5087975;28;20040;-74
2023/01/24 09:48:02;;;;;;;10.60;4.38;;;;;;;;;;5087548;28;20754;-75
2023/01/24 09:50:45;;;;;;;5.80;4.65;;;;;;;;;;5087370;28;20059;-75
2023/01/24 09:53:23;;;;;;;7.72;6.00;;;;;;;;;;5085925;28;20406;-76
2023/01/24 09:55:55;;;;;;;9.02;5.68;;;;;;;;;;5087495;28;20063;-74
2023/01/24 09:58:39;;;;;;;12.43;5.32;;;;;;;;;;5087599;28;20044;-75
2023/01/24 10:01:13;;;;;;;8.38;5.88;;;;;;;;;;5087425;28;20438;-74
2023/01/24 10:03:44;;;;;;;9.00;5.78;;;;;;;;;;5069200;28;20411;-76
2023/01/24 10:06:22;;;;;;;8.15;3.95;;;;;;;;;;5087513;28;20527;-74
2023/01/24 10:08:57;;;;;;;5.25;3.72;;;;;;;;;;5087040;28;20044;-74
2023/01/24 10:11:46;;;;;;;7.60;3.55;;;;;;;;;;5086017;28;20056;-75
2023/01/24 10:14:44;;;;;;;12.70;5.20;;;;;;;;;;5087522;28;20044;-74
2023/01/24 10:17:17;;;;;;;4.45;3.50;;;;;;;;;;5087121;28;20048;-75
2023/01/24 10:20:26;;;;;;;6.53;3.03;;;;;;;;;;5086145;28;20048;-74
2023/01/24 10:23:08;;;;;;;9.38;2.88;;;;;;;;;;5084534;28;20060;-76
2023/01/24 10:25:51;;;;;;;6.47;2.75;;;;;;;;;;5085319;28;20059;-76
2023/01/24 10:28:38;;;;;;;4.68;3.05;;;;;;;;;;5086475;28;20044;-75
2023/01/24 10:31:14;;;;;;;10.25;3.70;;;;;;;;;;5087659;28;20056;-75
2023/01/24 10:33:48;;;;;;;4.85;3.20;;;;;;;;;;5086581;28;20435;-75
2023/01/24 10:36:43;;;;;;;5.10;3.05;;;;;;;;;;5086797;28;20491;-75
2023/01/24 10:39:13;;;;;;;6.30;2.65;;;;;;;;;;5085353;28;20503;-74
2023/01/24 10:41:45;;;;;;;6.45;2.88;;;;;;;;;;5087082;28;20067;-74
2023/01/24 10:44:29;;;;;;;3.45;2.13;;;;;;;;;;5086746;28;20044;-75
2023/01/24 10:47:27;;;;;;;5.60;2.35;;;;;;;;;;5087090;28;20399;-74
2023/01/24 10:50:09;;;;;;;7.78;2.40;;;;;;;;;;5086581;28;20542;-74
2023/01/24 10:53:14;;;;;;;6.88;2.20;;;;;;;;;;5087174;28;20048;-74
2023/01/24 10:56:00;;;;;;;4.00;1.85;;;;;;;;;;5086388;28;20040;-74
2023/01/24 10:58:39;;;;;;;4.68;2.00;;;;;;;;;;5086707;28;20052;-74
2023/01/24 11:01:19;;;;;;;2.70;1.95;;;;;;;;;;5086265;28;20044;-74
2023/01/24 11:03:54;;;;;;;4.38;2.20;;;;;;;;;;5086233;28;20044;-73
2023/01/24 11:06:34;;;;;;;4.53;2.10;;;;;;;;;;5086574;28;20044;-73
2023/01/24 11:09:11;;;;;;;3.25;2.13;;;;;;;;;;5085931;28;20036;-73
2023/01/24 11:11:52;;;;;;;5.57;2.05;;;;;;;;;;5086110;28;20051;-73
2023/01/24 11:14:29;;;;;;;4.22;1.80;;;;;;;;;;5086417;28;20087;-73
2023/01/24 11:17:01;;;;;;;8.20;3.78;;;;;;;;;;5083680;28;20048;-73
2023/01/24 11:19:34;;;;;;;3.80;2.10;;;;;;;;;;5086291;28;20513;-73
2023/01/24 11:22:25;;;;;;;4.50;2.15;;;;;;;;;;5086827;28;20054;-73
2023/01/24 11:25:01;;;;;;;7.80;1.95;;;;;;;;;;5086689;28;20052;-74
2023/01/24 11:27:45;;;;;;;4.88;2.00;;;;;;;;;;5086576;28;20055;-76
2023/01/24 11:30:21;;;;;;;8.98;2.30;;;;;;;;;;5086367;28;20588;-74
2023/01/24 11:33:09;;;;;;;4.45;1.95;;;;;;;;;;5085565;28;20055;-74
2023/01/24 11:35:56;;;;;;;13.02;2.50;;;;;;;;;;5088636;28;20055;-74
2023/01/24 11:38:33;;;;;;;4.07;1.88;;;;;;;;;;5089225;28;20044;-74
2023/01/24 11:41:24;;;;;;;4.32;2.15;;;;;;;;;;5088762;28;20517;-74
2023/01/24 11:44:03;;;;;;;7.70;2.15;;;;;;;;;;5089330;28;20515;-77
2023/01/24 11:47:03;;;;;;;5.28;2.03;;;;;;;;;;5089849;28;20040;-75
2023/01/24 11:49:58;;;;;;;6.35;2.20;;;;;;;;;;5076817;28;20093;-74
2023/01/24 11:52:51;;;;;;;3.58;1.73;;;;;;;;;;5090227;28;20406;-75
2023/01/24 11:56:05;;;;;;;3.95;1.90;;;;;;;;;;5089634;28;20063;-74
2023/01/24 11:58:39;;;;;;;5.18;2.05;;;;;;;;;;5087956;28;20063;-75
2023/01/24 12:01:35;;;;;;;4.32;1.90;;;;;;;;;;5089937;28;20044;-75
2023/01/24 12:04:20;;;;;;;9.57;3.17;;;;;;;;;;5060627;28;20056;-77
2023/01/24 12:07:05;;;;;;;3.22;1.98;;;;;;;;;;5089934;28;20051;-75
2023/01/24 12:09:52;;;;;;;7.78;1.77;;;;;;;;;;5089684;28;20804;-74
2023/01/24 12:12:32;;;;;;;2.70;1.42;;;;;;;;;;5089966;28;20491;-75
2023/01/24 12:15:26;;;;;;;7.82;2.03;;;;;;;;;;5089547;28;20052;-75
2023/01/24 12:18:16;;;;;;;4.43;1.67;;;;;;;;;;5089366;28;20044;-75
2023/01/24 12:21:04;;;;;;;4.57;1.63;;;;;;;;;;5089304;28;20044;-75
2023/01/24 12:23:39;;;;;;;3.67;1.70;;;;;;;;;;5089090;28;20110;-76
2023/01/24 12:26:17;;;;;;;5.35;1.73;;;;;;;;;;5089242;28;20047;-76
2023/01/24 12:29:12;;;;;;;3.42;1.95;;;;;;;;;;5089036;28;20387;-75
2023/01/24 12:32:01;;;;;;;6.38;2.10;;;;;;;;;;5089211;28;20040;-74
2023/01/24 12:34:50;;;;;;;2.70;1.85;;;;;;;;;;5089182;28;20047;-75
2023/01/24 12:37:40;;;;;;;2.92;2.10;;;;;;;;;;5089340;28;20043;-74
2023/01/24 12:40:13;;;;;;;6.00;2.33;;;;;;;;;;5089601;28;20047;-74
2023/01/24 12:42:50;;;;;;;3.35;2.45;;;;;;;;;;5088529;28;20380;-74
2023/01/24 12:45:33;;;;;;;5.40;2.25;;;;;;;;;;5088335;28;20074;-73
2023/01/24 12:48:26;;;;;;;5.80;2.25;;;;;;;;;;5088973;28;20036;-75
2023/01/24 12:51:04;;;;;;;3.95;2.10;;;;;;;;;;5088392;28;20055;-75
2023/01/24 12:54:07;;;;;;;9.80;2.90;;;;;;;;;;5088728;28;20056;-75
2023/01/24 12:56:59;;;;;;;4.45;2.45;;;;;;;;;;5087503;28;20048;-75
2023/01/24 12:59:33;;;;;;;6.38;2.95;;;;;;;;;;5088880;28;20040;-74
2023/01/24 13:02:20;;;;;;;9.73;2.88;;;;;;;;;;5088685;28;20506;-74
2023/01/24 13:05:10;;;;;;;6.50;2.63;;;;;;;;;;5088868;28;20040;-75
2023/01/24 13:07:46;;;;;;;5.80;3.05;;;;;;;;;;5088378;28;20047;-75
2023/01/24 13:10:21;;;;;;;8.32;3.20;;;;;;;;;;5088930;28;21217;-74
2023/01/24 13:12:54;;;;;;;3.47;2.75;;;;;;;;;;5088430;28;20048;-75
2023/01/24 13:15:34;;;;;;;12.13;3.00;;;;;;;;;;5086607;28;20036;-76
2023/01/24 13:18:17;;;;;;;7.38;2.85;;;;;;;;;;5088372;28;20040;-73
2023/01/24 13:21:05;;;;;;;10.25;3.15;;;;;;;;;;5087928;28;20071;-75
2023/01/24 13:23:53;;;;;;;6.22;2.65;;;;;;;;;;5088462;28;20044;-74
2023/01/24 13:26:35;;;;;;;5.70;2.70;;;;;;;;;;5086409;28;20600;-75
2023/01/24 13:29:16;;;;;;;;;;;;;;;;;;5088603;28;20048;-75
2023/01/24 13:32:06;;;;;;;5.30;2.78;;;;;;;;;;5088463;28;20283;-75
2023/01/24 13:34:45;;;;;;;7.60;2.22;;;;;;;;;;5088041;28;20052;-75
2023/01/24 13:37:21;;;;;;;4.38;2.30;;;;;;;;;;5087895;28;20043;-74
2023/01/24 13:40:15;;;;;;;9.23;3.13;;;;;;;;;;5087502;28;20055;-74
2023/01/24 13:42:48;;;;;;;6.95;2.70;;;;;;;;;;5088123;28;20044;-75
2023/01/24 13:45:26;;;;;;;6.50;2.38;;;;;;;;;;5087807;28;20048;-74
2023/01/24 13:48:00;;;;;;;4.40;2.20;;;;;;;;;;5087336;28;20044;-75
2023/01/24 13:50:32;;;;;;;8.32;3.38;;;;;;;;;;5087171;28;20063;-75
2023/01/24 13:53:03;;;;;;;8.80;2.53;;;;;;;;;;5087403;28;20040;-75
2023/01/24 13:55:40;;;;;;;4.45;2.40;;;;;;;;;;5086109;28;20048;-75
2023/01/24 13:58:18;;;;;;;4.57;2.10;;;;;;;;;;5086980;28;20040;-74
2023/01/24 14:00:51;;;;;;;5.22;1.92;;;;;;;;;;5087779;28;20544;-75
2023/01/24 14:03:30;;;;;;;5.10;2.10;;;;;;;;;;5087094;28;20118;-75
2023/01/24 14:06:14;;;;;;;12.32;3.17;;;;;;;;;;5087714;28;20052;-76
2023/01/24 14:08:54;;;;;;;4.38;2.55;;;;;;;;;;5086903;28;20415;-75
2023/01/24 14:11:35;;;;;;;5.20;2.10;;;;;;;;;;5085679;28;20052;-75
2023/01/24 14:14:31;;;;;;;4.45;1.95;;;;;;;;;;5086940;28;20044;-73
2023/01/24 14:17:25;;;;;;;5.95;2.33;;;;;;;;;;5087022;28;20613;-79
2023/01/24 14:19:58;;;;;;;3.75;2.08;;;;;;;;;;5087636;28;20052;-75
2023/01/24 14:22:38;;;;;;;7.57;2.05;;;;;;;;;;5087204;28;20048;-76
2023/01/24 14:25:34;;;;;;;3.75;1.73;;;;;;;;;;5087076;28;20055;-74
2023/01/24 14:28:19;;;;;;;3.80;1.83;;;;;;;;;;5052806;28;20542;-76
2023/01/24 14:31:00;;;;;;;5.53;1.50;;;;;;;;;;5085147;28;20418;-75
2023/01/24 14:34:09;;;;;;;2.20;1.70;;;;;;;;;;5087516;28;20062;-77
2023/01/24 14:36:57;;;;;;;6.38;1.83;;;;;;;;;;5086355;28;20036;-78
2023/01/24 14:39:28;;;;;;;4.95;1.92;;;;;;;;;;5086735;28;20495;-78
2023/01/24 14:42:02;;;;;;;5.03;1.63;;;;;;;;;;5086930;28;20601;-77
2023/01/24 14:44:38;;;;;;;3.42;1.40;;;;;;;;;;5086853;28;20467;-77
2023/01/24 14:47:35;;;;;;;5.68;1.67;;;;;;;;;;5086203;28;20379;-75
2023/01/24 14:50:22;;;;;;;5.57;1.40;;;;;;;;;;5085402;28;20392;-77
2023/01/24 14:52:54;;;;;;;3.80;1.50;;;;;;;;;;5086941;28;20040;-75
2023/01/24 14:55:29;;;;;;;7.10;1.55;;;;;;;;;;5086442;28;20044;-76
2023/01/24 14:58:25;;;;;;;1.95;1.20;;;;;;;;;;5086742;28;20820;-75
2023/01/24 15:01:00;;;;;;;4.60;1.25;;;;;;;;;;5086483;28;20059;-75
2023/01/24 15:03:33;;;;;;;4.30;1.50;;;;;;;;;;5086960;28;20055;-76
2023/01/24 15:06:07;;;;;;;4.15;1.63;;;;;;;;;;5086313;28;20052;-75
2023/01/24 15:08:37;;;;;;;6.03;1.60;;;;;;;;;;5087228;28;20044;-74
2023/01/24 15:11:17;;;;;;;1.67;1.30;;;;;;;;;;5090571;28;20043;-77
2023/01/24 15:13:56;;;;;;;3.15;1.33;;;;;;;;;;5090762;28;20410;-75
2023/01/24 15:16:36;;;;;;;3.15;1.20;;;;;;;;;;5090953;28;20051;-76
2023/01/24 15:19:20;;;;;;;2.80;1.30;;;;;;;;;;5091133;28;20043;-76
2023/01/24 15:21:53;;;;;;;1.77;1.30;;;;;;;;;;5090863;28;20047;-78
2023/01/24 15:24:29;;;;;;;3.30;1.10;;;;;;;;;;5090022;28;20047;-75
2023/01/24 15:27:22;;;;;;;2.05;1.20;;;;;;;;;;5090801;28;20059;-76
2023/01/24 15:30:13;;;;;;;3.80;1.20;;;;;;;;;;5090078;28;20403;-74
2023/01/24 15:33:10;;;;;;;2.55;1.50;;;;;;;;;;5089838;28;20526;-78
2023/01/24 15:35:47;;;;;;;1.70;1.30;;;;;;;;;;5088472;28;20064;-73
2023/01/24 15:38:18;;;;;;;6.32;1.50;;;;;;;;;;5090051;28;20048;-74
2023/01/24 15:41:23;;;;;;;1.70;1.30;;;;;;;;;;5090160;28;20529;-76
2023/01/24 15:44:07;;;;;;;1.77;1.27;;;;;;;;;;5058563;28;20060;-76
2023/01/24 15:49:36;;;;;;;3.78;1.30;;;;;;;;;;5087949;28;20055;-74
2023/01/24 15:52:09;;;;;;;1.08;0.90;;;;;;;;;;5088706;28;20036;-76
2023/01/24 15:54:41;;;;;;;3.67;1.13;;;;;;;;;;5089901;28;20048;-76
2023/01/24 15:57:19;;;;;;;1.88;1.30;;;;;;;;;;5089802;28;20434;-76
2023/01/24 15:59:56;;;;;;;3.45;1.23;;;;;;;;;;5090013;28;20051;-75
2023/01/24 16:02:27;;;;;;;3.90;0.90;;;;;;;;;;5090096;28;20526;-77
2023/01/24 16:04:58;;;;;;;2.00;1.00;;;;;;;;;;5090143;28;20495;-75
2023/01/24 16:07:30;;;;;;;6.75;1.15;;;;;;;;;;5089582;28;20503;-76
2023/01/24 16:10:00;;;;;;;5.43;1.30;;;;;;;;;;5089536;28;20048;-75
2023/01/24 16:12:33;;;;;;;2.47;1.00;;;;;;;;;;5089298;28;20056;-75
2023/01/24 16:15:04;;;;;;;2.22;1.00;;;;;;;;;;5089782;28;20047;-75
2023/01/24 16:17:38;;;;;;;2.38;1.13;;;;;;;;;;5089561;28;20506;-74
2023/01/24 16:20:27;;;;;;;2.00;1.08;;;;;;;;;;5088305;28;20066;-77
2023/01/24 16:22:58;;;;;;;3.33;1.25;;;;;;;;;;5086914;28;20055;-77